Time;durP1;ratioP1;P1;durP2;ratioP2;P2;SDS_P1;SDS_P2;PMS_P1;PMS_P2;Temp;Humidity;BMP_temperature;BMP_pressure;BME280_temperature;BME280_humidity;BME280_pressure;Samples;Min_cycle;Max_cycle;Signal;HPM_P1;HPM_P2
2023/10/19 00:00:55;;;;;;;14.57;9.43;;;8.10;1.00;;;;;;5054658;28;20464;-48
2023/10/19 00:03:23;;;;;;;16.57;9.23;;;8.10;1.00;;;;;;5054793;28;20413;-49
2023/10/19 00:05:49;;;;;;;15.90;10.37;;;8.10;1.00;;;;;;5054831;28;20430;-49
2023/10/19 00:08:20;;;;;;;17.37;9.40;;;8.10;1.00;;;;;;5054407;28;20485;-49
2023/10/19 00:10:51;;;;;;;14.27;9.47;;;8.10;1.00;;;;;;5054537;28;20499;-49
2023/10/19 00:13:19;;;;;;;12.60;9.40;;;8.10;1.00;;;;;;5054643;28;20422;-49
2023/10/19 00:15:48;;;;;;;14.57;10.77;;;8.20;1.00;;;;;;5054364;28;20419;-49
2023/10/19 00:20:59;;;;;;;13.97;9.53;;;8.20;1.00;;;;;;5054220;28;20482;-49
2023/10/19 00:23:31;;;;;;;17.47;11.13;;;8.20;1.00;;;;;;5054269;28;20468;-49
2023/10/19 00:26:14;;;;;;;18.70;10.40;;;8.10;1.00;;;;;;5054250;28;20490;-49
2023/10/19 00:28:40;;;;;;;15.87;10.37;;;8.10;1.00;;;;;;5036366;28;20781;-49
2023/10/19 00:31:10;;;;;;;15.83;10.10;;;8.10;1.00;;;;;;5053902;28;20427;-48
2023/10/19 00:33:39;;;;;;;17.53;11.30;;;8.10;1.00;;;;;;5053951;28;20247;-49
2023/10/19 00:36:09;;;;;;;16.10;10.37;;;8.10;1.00;;;;;;5053549;28;20925;-49
2023/10/19 00:41:12;;;;;;;17.10;11.00;;;8.20;1.00;;;;;;5053993;28;20475;-49
2023/10/19 00:43:43;;;;;;;22.63;11.83;;;8.20;1.00;;;;;;5052544;28;20412;-49
2023/10/19 00:48:53;;;;;;;16.90;11.80;;;8.20;1.00;;;;;;5053475;28;20424;-50
2023/10/19 00:53:59;;;;;;;24.43;11.37;;;8.30;1.00;;;;;;5053469;28;20783;-49
2023/10/19 00:56:32;;;;;;;16.80;11.00;;;8.30;1.00;;;;;;5053354;28;20451;-48
2023/10/19 00:59:22;;;;;;;18.53;11.50;;;8.20;1.00;;;;;;5053293;28;20493;-49
2023/10/19 01:01:50;;;;;;;20.97;12.00;;;8.20;1.00;;;;;;5053612;28;20482;-49
2023/10/19 01:04:20;;;;;;;17.80;11.50;;;8.20;1.00;;;;;;5053654;28;20423;-49
2023/10/19 01:07:00;;;;;;;17.57;11.00;;;8.20;1.00;;;;;;5053856;28;20407;-49
2023/10/19 01:09:34;;;;;;;18.70;11.73;;;8.20;1.00;;;;;;5053555;28;20416;-49
2023/10/19 01:12:03;;;;;;;19.00;11.20;;;8.30;1.00;;;;;;5053663;28;20820;-49
2023/10/19 01:14:29;;;;;;;18.43;11.50;;;8.30;1.00;;;;;;5053427;28;20419;-49
2023/10/19 01:16:59;;;;;;;16.43;10.60;;;8.30;1.00;;;;;;5053476;28;20498;-50
2023/10/19 01:19:27;;;;;;;17.47;11.87;;;8.30;1.00;;;;;;5053452;28;20502;-49
2023/10/19 01:21:58;;;;;;;17.80;11.93;;;8.30;1.00;;;;;;5053430;28;20972;-49
2023/10/19 01:24:41;;;;;;;19.27;10.60;;;8.20;1.00;;;;;;5053840;28;20856;-49
2023/10/19 01:27:10;;;;;;;20.40;11.73;;;8.30;1.00;;;;;;5053744;28;20832;-49
2023/10/19 01:29:38;;;;;;;16.00;10.60;;;8.30;1.00;;;;;;5053590;28;20451;-54
2023/10/19 01:32:11;;;;;;;19.20;11.80;;;8.40;1.00;;;;;;5053393;28;20428;-49
2023/10/19 01:34:37;;;;;;;21.57;11.80;;;8.30;1.00;;;;;;5053497;28;20420;-50
2023/10/19 01:37:03;;;;;;;17.23;10.03;;;8.30;1.00;;;;;;5053319;28;20423;-49
2023/10/19 01:39:35;;;;;;;21.10;12.37;;;8.30;1.00;;;;;;5053353;28;20189;-49
2023/10/19 01:42:04;;;;;;;16.00;11.00;;;8.30;1.00;;;;;;5053422;28;20459;-49
2023/10/19 01:44:29;;;;;;;18.40;11.27;;;8.30;1.00;;;;;;5053355;28;20420;-48
2023/10/19 01:46:55;;;;;;;19.10;11.20;;;8.30;1.00;;;;;;5053490;28;20804;-49
2023/10/19 01:49:30;;;;;;;15.93;10.70;;;8.30;1.00;;;;;;5053620;28;20232;-49
2023/10/19 01:51:56;;;;;;;19.60;11.77;;;8.30;1.00;;;;;;5053034;28;20482;-49
2023/10/19 01:54:25;;;;;;;19.50;12.03;;;8.30;1.00;;;;;;5052924;28;20421;-49
2023/10/19 01:56:56;;;;;;;18.87;11.17;;;8.30;1.00;;;;;;5052948;28;20560;-49
2023/10/19 01:59:27;;;;;;;16.20;11.23;;;8.40;1.00;;;;;;5052894;28;20747;-49
2023/10/19 02:01:57;;;;;;;17.73;11.20;;;8.30;1.00;;;;;;5052993;28;20475;-49
2023/10/19 02:04:23;;;;;;;14.70;10.70;;;8.30;1.00;;;;;;5052914;28;20419;-49
2023/10/19 02:06:51;;;;;;;14.93;10.87;;;8.30;1.00;;;;;;5056567;28;20431;-49
2023/10/19 02:09:17;;;;;;;16.13;10.80;;;8.30;1.00;;;;;;5056517;28;20415;-50
2023/10/19 02:11:47;;;;;;;15.97;11.43;;;8.30;1.00;;;;;;5056415;28;20422;-49
2023/10/19 02:14:14;;;;;;;23.10;11.40;;;8.30;1.00;;;;;;5056155;28;20933;-49
2023/10/19 02:16:41;;;;;;;17.13;11.40;;;8.30;1.00;;;;;;5056584;28;20428;-50
2023/10/19 02:19:07;;;;;;;22.73;11.70;;;8.40;1.00;;;;;;5056610;28;20415;-49
2023/10/19 02:21:38;;;;;;;17.27;11.30;;;8.40;1.00;;;;;;5056011;28;20472;-49
2023/10/19 02:24:04;;;;;;;21.10;12.00;;;8.40;1.00;;;;;;5056321;28;20187;-50
2023/10/19 02:26:31;;;;;;;17.27;11.40;;;8.40;1.00;;;;;;5056328;28;20403;-50
2023/10/19 02:28:58;;;;;;;18.30;12.30;;;8.40;1.00;;;;;;5055934;28;20520;-50
2023/10/19 02:31:24;;;;;;;15.73;11.33;;;8.40;1.00;;;;;;5055839;28;20818;-49
2023/10/19 02:33:52;;;;;;;20.47;11.97;;;8.40;1.00;;;;;;5055974;28;20447;-49
2023/10/19 02:36:19;;;;;;;18.40;11.60;;;8.30;1.00;;;;;;5056309;28;20445;-49
2023/10/19 02:38:48;;;;;;;18.37;12.23;;;8.30;1.00;;;;;;5055600;28;20428;-50
2023/10/19 02:41:18;;;;;;;18.73;11.77;;;8.40;1.00;;;;;;5055930;28;20474;-50
2023/10/19 02:43:51;;;;;;;16.50;11.27;;;8.40;1.00;;;;;;5056137;28;20502;-50
2023/10/19 02:46:20;;;;;;;20.40;12.30;;;8.40;1.00;;;;;;5056382;28;20547;-50
2023/10/19 02:48:47;;;;;;;18.57;12.73;;;8.40;1.00;;;;;;5055902;28;20455;-50
2023/10/19 02:51:13;;;;;;;17.93;11.53;;;8.40;1.00;;;;;;5055632;28;20483;-50
2023/10/19 02:53:42;;;;;;;20.37;13.13;;;8.40;1.00;;;;;;5055684;28;20920;-49
2023/10/19 02:56:12;;;;;;;19.20;11.70;;;8.40;1.00;;;;;;5055727;28;20414;-50
2023/10/19 02:58:42;;;;;;;16.90;11.53;;;8.40;1.00;;;;;;5055721;28;20447;-49
2023/10/19 03:01:17;;;;;;;20.87;12.73;;;8.40;1.00;;;;;;5055742;28;20450;-49
2023/10/19 03:03:43;;;;;;;16.70;11.87;;;8.40;1.00;;;;;;5055685;28;20480;-50
2023/10/19 03:06:09;;;;;;;17.20;12.20;;;8.30;1.00;;;;;;5055461;28;20412;-50
2023/10/19 03:08:35;;;;;;;20.43;13.27;;;8.30;1.00;;;;;;5055613;28;20481;-49
2023/10/19 03:11:04;;;;;;;17.67;12.53;;;8.40;1.00;;;;;;5055289;28;20417;-49
2023/10/19 03:13:32;;;;;;;19.33;12.30;;;8.30;1.00;;;;;;5055022;28;20185;-50
2023/10/19 03:16:00;;;;;;;18.73;12.73;;;8.30;1.00;;;;;;5054909;28;20420;-50
2023/10/19 03:18:26;;;;;;;25.00;12.63;;;8.30;1.00;;;;;;5055238;28;20418;-49
2023/10/19 03:20:51;;;;;;;16.80;11.60;;;8.40;1.00;;;;;;5054893;28;20978;-50
2023/10/19 03:23:17;;;;;;;18.40;12.00;;;8.30;1.00;;;;;;5054983;28;20190;-49
2023/10/19 03:25:50;;;;;;;18.07;11.87;;;8.40;1.00;;;;;;5055065;28;20182;-49
2023/10/19 03:28:17;;;;;;;20.00;13.00;;;8.40;1.00;;;;;;5055177;28;20175;-49
2023/10/19 03:30:43;;;;;;;24.00;12.67;;;8.40;1.00;;;;;;5054861;28;20743;-49
2023/10/19 03:33:09;;;;;;;19.83;12.70;;;8.40;1.00;;;;;;5054563;28;20425;-49
2023/10/19 03:35:37;;;;;;;23.17;13.60;;;8.30;1.00;;;;;;5054879;28;20181;-49
2023/10/19 03:38:08;;;;;;;23.03;13.53;;;8.20;1.00;;;;;;5054609;28;20492;-50
2023/10/19 03:40:38;;;;;;;24.10;11.93;;;8.10;1.00;;;;;;5054745;28;20750;-49
2023/10/19 03:43:14;;;;;;;26.73;14.50;;;8.10;1.00;;;;;;5055036;28;20463;-49
2023/10/19 03:45:44;;;;;;;19.57;12.80;;;8.00;1.00;;;;;;5054641;28;20413;-49
2023/10/19 03:48:10;;;;;;;21.77;13.53;;;7.90;1.00;;;;;;5054987;28;20422;-49
2023/10/19 03:50:36;;;;;;;20.03;13.13;;;7.80;77.80;;;;;;5054548;28;20562;-49
2023/10/19 03:53:04;;;;;;;23.53;14.83;;;7.80;99.90;;;;;;5054612;28;20455;-49
2023/10/19 03:55:30;;;;;;;23.40;14.53;;;7.70;99.90;;;;;;5054548;28;20504;-49
2023/10/19 03:57:55;;;;;;;24.80;15.50;;;7.60;1.00;;;;;;5054427;28;20459;-49
2023/10/19 04:00:24;;;;;;;27.20;14.47;;;7.60;1.00;;;;;;5054781;28;20665;-49
2023/10/19 04:02:53;;;;;;;24.30;13.80;;;7.50;1.00;;;;;;5054602;28;20225;-49
2023/10/19 04:05:22;;;;;;;23.77;15.03;;;7.50;99.90;;;;;;5054736;28;20431;-50
2023/10/19 04:07:55;;;;;;;24.83;15.07;;;7.50;99.90;;;;;;5054616;28;20453;-49
2023/10/19 04:13:00;;;;;;;22.77;14.37;;;7.50;1.00;;;;;;5054662;28;20414;-49
2023/10/19 04:15:26;;;;;;;27.23;16.03;;;7.50;18.60;;;;;;5054151;28;20417;-49
2023/10/19 04:17:58;;;;;;;27.80;15.67;;;7.40;65.00;;;;;;5053857;28;20411;-49
2023/10/19 04:23:05;;;;;;;25.57;15.83;;;7.40;1.00;;;;;;5054281;28;20495;-49
2023/10/19 04:25:31;;;;;;;24.77;15.60;;;7.40;1.00;;;;;;5053876;28;20451;-49
2023/10/19 04:27:57;;;;;;;27.07;16.47;;;7.30;66.80;;;;;;5053664;28;20420;-49
2023/10/19 04:30:22;;;;;;;23.00;15.50;;;7.20;99.90;;;;;;5053739;28;20183;-49
2023/10/19 04:32:49;;;;;;;29.73;16.90;;;7.20;12.60;;;;;;5054093;28;20585;-49
2023/10/19 04:35:21;;;;;;;30.07;15.57;;;7.20;1.00;;;;;;5053616;28;20258;-49
2023/10/19 04:37:50;;;;;;;28.63;17.00;;;7.20;99.90;;;;;;5053925;28;20411;-49
2023/10/19 04:40:16;;;;;;;23.20;15.37;;;7.20;1.00;;;;;;5053756;28;20927;-49
2023/10/19 04:42:41;;;;;;;29.03;15.40;;;7.10;99.90;;;;;;5053531;28;20466;-49
2023/10/19 04:45:07;;;;;;;26.20;16.00;;;7.10;1.00;;;;;;5053526;28;20423;-48
2023/10/19 04:47:36;;;;;;;25.20;15.60;;;7.10;99.90;;;;;;5053842;28;20184;-47
2023/10/19 04:50:03;;;;;;;25.03;15.83;;;7.10;1.00;;;;;;5053563;28;20207;-47
2023/10/19 04:52:29;;;;;;;26.40;15.70;;;7.00;1.00;;;;;;5053766;28;20420;-47
2023/10/19 04:54:54;;;;;;;32.90;18.10;;;7.00;99.90;;;;;;5053808;28;20413;-47
2023/10/19 04:57:23;;;;;;;29.40;17.37;;;7.00;10.90;;;;;;5053499;28;20422;-48
2023/10/19 04:59:48;;;;;;;37.60;17.37;;;7.00;99.90;;;;;;5053157;28;20656;-48
2023/10/19 05:02:14;;;;;;;29.70;17.20;;;7.00;1.00;;;;;;5053349;28;20481;-47
2023/10/19 05:04:40;;;;;;;28.80;16.30;;;7.00;1.00;;;;;;5053211;28;20185;-47
2023/10/19 05:07:09;;;;;;;26.30;16.17;;;7.00;1.00;;;;;;5053543;28;20212;-47
2023/10/19 05:09:38;;;;;;;27.53;16.37;;;7.00;1.00;;;;;;5053631;28;20487;-48
2023/10/19 05:12:08;;;;;;;31.00;17.90;;;7.00;1.00;;;;;;5053860;28;20426;-47
2023/10/19 05:14:35;;;;;;;28.50;15.77;;;6.90;1.00;;;;;;5053506;28;20427;-48
2023/10/19 05:17:04;;;;;;;28.33;16.97;;;7.00;23.00;;;;;;5053110;28;20452;-47
2023/10/19 05:19:31;;;;;;;29.70;18.60;;;6.90;1.00;;;;;;5053247;28;20416;-49
2023/10/19 05:21:56;;;;;;;27.33;17.60;;;6.90;99.90;;;;;;5053380;28;20954;-48
2023/10/19 05:24:22;;;;;;;31.27;17.80;;;6.90;1.00;;;;;;5053830;28;20411;-48
2023/10/19 05:26:48;;;;;;;28.47;16.20;;;6.90;1.00;;;;;;5053797;28;20646;-49
2023/10/19 05:29:14;;;;;;;28.27;17.67;;;6.90;1.00;;;;;;5053470;28;20192;-48
2023/10/19 05:31:39;;;;;;;26.67;18.10;;;6.90;99.90;;;;;;5053125;28;20424;-48
2023/10/19 05:34:05;;;;;;;31.83;17.77;;;6.90;99.90;;;;;;5053382;28;20230;-47
2023/10/19 05:36:32;;;;;;;37.80;17.20;;;6.90;1.00;;;;;;5053257;28;20179;-48
2023/10/19 05:38:57;;;;;;;29.90;17.30;;;7.00;1.00;;;;;;5053359;28;20432;-48
2023/10/19 05:41:23;;;;;;;32.67;17.00;;;6.90;99.90;;;;;;5056143;28;20953;-48
2023/10/19 05:43:49;;;;;;;29.50;17.70;;;6.90;1.00;;;;;;5057107;28;20173;-48
2023/10/19 05:46:18;;;;;;;32.67;17.70;;;6.90;37.70;;;;;;5057333;28;20196;-47
2023/10/19 05:48:45;;;;;;;28.80;17.87;;;6.90;1.00;;;;;;5056932;28;20457;-48
2023/10/19 05:51:11;;;;;;;34.30;18.13;;;6.90;1.00;;;;;;5056232;28;20806;-48
2023/10/19 05:53:37;;;;;;;32.37;17.60;;;6.90;99.90;;;;;;5056423;28;20429;-49
2023/10/19 05:56:03;;;;;;;26.47;16.07;;;6.90;99.90;;;;;;5056529;28;20672;-47
2023/10/19 05:58:28;;;;;;;31.93;18.00;;;6.80;1.00;;;;;;5056541;28;20412;-48
2023/10/19 06:00:58;;;;;;;29.23;17.73;;;6.90;4.60;;;;;;5056438;28;20184;-48
2023/10/19 06:03:24;;;;;;;28.13;16.37;;;6.90;99.90;;;;;;5056786;28;20249;-48
2023/10/19 06:05:50;;;;;;;31.07;17.57;;;6.90;1.00;;;;;;5056255;28;20402;-47
2023/10/19 06:08:15;;;;;;;28.17;18.33;;;6.90;99.90;;;;;;5056612;28;20208;-47
2023/10/19 06:10:42;;;;;;;32.97;18.20;;;6.90;99.90;;;;;;5056592;28;20180;-47
2023/10/19 06:13:09;;;;;;;28.80;17.60;;;6.90;1.00;;;;;;5056213;28;20529;-48
2023/10/19 06:15:35;;;;;;;32.83;18.37;;;6.90;12.60;;;;;;5056477;28;20491;-48
2023/10/19 06:18:01;;;;;;;27.03;17.20;;;6.80;1.00;;;;;;5056186;28;20549;-47
2023/10/19 06:20:26;;;;;;;30.20;18.03;;;6.90;99.90;;;;;;5056111;28;20416;-47
2023/10/19 06:23:03;;;;;;;29.33;17.40;;;6.90;76.70;;;;;;5056514;28;20208;-48
2023/10/19 06:25:29;;;;;;;33.03;17.70;;;6.90;99.90;;;;;;5056341;28;20203;-48
2023/10/19 06:27:57;;;;;;;30.03;18.43;;;6.90;99.90;;;;;;5056481;28;20506;-48
2023/10/19 06:30:23;;;;;;;29.43;17.37;;;6.90;1.00;;;;;;5055971;28;20226;-48
2023/10/19 06:32:51;;;;;;;28.73;16.80;;;7.00;99.90;;;;;;5056414;28;20442;-48
2023/10/19 06:35:20;;;;;;;27.53;16.60;;;7.00;99.90;;;;;;5055894;28;20474;-48
2023/10/19 06:37:47;;;;;;;33.60;17.67;;;7.00;99.90;;;;;;5056302;28;20848;-47
2023/10/19 06:40:16;;;;;;;26.97;17.27;;;7.00;1.00;;;;;;5056372;28;20808;-49
2023/10/19 06:42:46;;;;;;;27.40;17.50;;;7.00;1.00;;;;;;5056066;28;20474;-48
2023/10/19 06:45:16;;;;;;;30.77;18.40;;;7.00;99.90;;;;;;5055855;28;20417;-48
2023/10/19 06:47:44;;;;;;;30.27;16.47;;;7.00;86.60;;;;;;5055846;28;20869;-48
2023/10/19 06:50:11;;;;;;;29.60;17.03;;;7.10;5.90;;;;;;5055626;28;20539;-48
2023/10/19 06:52:39;;;;;;;30.67;17.03;;;7.00;99.90;;;;;;5055450;28;20403;-48
2023/10/19 06:55:13;;;;;;;27.43;17.30;;;7.00;99.90;;;;;;5055873;28;20448;-48
2023/10/19 06:57:47;;;;;;;26.90;17.57;;;7.00;99.90;;;;;;5055536;28;20466;-48
2023/10/19 07:00:20;;;;;;;28.93;18.17;;;7.00;1.00;;;;;;5056017;28;20400;-48
2023/10/19 07:02:47;;;;;;;28.10;17.10;;;7.00;1.00;;;;;;5037431;28;20818;-48
2023/10/19 07:05:14;;;;;;;29.43;18.33;;;7.10;1.00;;;;;;5055673;28;20413;-48
2023/10/19 07:07:44;;;;;;;28.23;18.00;;;7.10;96.80;;;;;;5055167;28;20495;-48
2023/10/19 07:10:14;;;;;;;29.87;16.20;;;7.10;99.90;;;;;;5055404;28;20422;-48
2023/10/19 07:12:45;;;;;;;27.20;17.50;;;7.10;99.90;;;;;;5055416;28;20498;-49
2023/10/19 07:15:14;;;;;;;29.17;17.27;;;7.20;62.60;;;;;;5054759;28;20909;-49
2023/10/19 07:17:43;;;;;;;25.87;16.90;;;7.20;5.60;;;;;;5054955;28;20428;-49
2023/10/19 07:21:02;;;;;;;31.23;18.43;;;7.20;99.90;;;;;;5055030;28;20785;-48
2023/10/19 07:22:57;;;;;;;30.77;17.77;;;7.20;95.50;;;;;;5047482;28;20868;-48
2023/10/19 07:25:25;;;;;;;32.70;18.30;;;7.10;99.90;;;;;;5055116;28;20421;-48
2023/10/19 07:27:52;;;;;;;30.97;18.10;;;7.10;99.90;;;;;;5054746;28;20412;-48
2023/10/19 07:30:21;;;;;;;25.30;17.73;;;7.10;1.00;;;;;;5054693;28;20416;-48
2023/10/19 07:32:59;;;;;;;31.83;18.03;;;7.10;99.90;;;;;;5054624;28;20427;-48
2023/10/19 07:35:27;;;;;;;26.07;16.90;;;7.10;99.90;;;;;;5054619;28;20406;-48
2023/10/19 07:37:54;;;;;;;30.40;17.40;;;7.20;1.00;;;;;;5054523;28;20470;-48
2023/10/19 07:40:20;;;;;;;27.80;17.50;;;7.10;99.90;;;;;;5054463;28;20458;-48
2023/10/19 07:42:48;;;;;;;26.67;16.30;;;7.10;1.00;;;;;;5054422;28;20490;-48
2023/10/19 07:45:14;;;;;;;29.47;17.40;;;7.20;99.90;;;;;;5054372;28;20969;-48
2023/10/19 07:47:41;;;;;;;29.80;17.17;;;7.20;99.90;;;;;;5054382;28;20850;-48
2023/10/19 07:50:17;;;;;;;35.20;18.83;;;7.20;99.90;;;;;;5054065;28;20473;-49
2023/10/19 07:52:48;;;;;;;28.60;17.47;;;7.20;1.00;;;;;;5054548;28;20457;-48
2023/10/19 07:55:15;;;;;;;38.03;18.30;;;7.20;1.00;;;;;;5054217;28;20423;-48
2023/10/19 07:57:42;;;;;;;33.73;17.97;;;7.30;1.00;;;;;;5054540;28;20421;-51
2023/10/19 08:00:09;;;;;;;31.73;17.97;;;7.30;99.90;;;;;;5053803;28;20984;-48
2023/10/19 08:02:37;;;;;;;32.53;18.80;;;7.30;99.90;;;;;;5053727;28;20595;-48
2023/10/19 08:05:04;;;;;;;32.23;17.70;;;7.40;99.90;;;;;;5054017;28;20416;-48
2023/10/19 08:07:29;;;;;;;29.53;18.50;;;7.40;99.90;;;;;;5053991;28;20427;-48
2023/10/19 08:09:58;;;;;;;30.30;18.00;;;7.40;1.00;;;;;;5053727;28;20423;-49
2023/10/19 08:12:26;;;;;;;29.53;17.93;;;7.40;99.90;;;;;;5053633;28;20289;-49
2023/10/19 08:14:52;;;;;;;31.67;17.17;;;7.40;99.90;;;;;;5053865;28;20424;-48
2023/10/19 08:17:18;;;;;;;31.90;18.63;;;7.40;1.00;;;;;;5053821;28;20800;-48
2023/10/19 08:19:43;;;;;;;35.37;17.57;;;7.40;47.20;;;;;;5053786;28;20459;-48
2023/10/19 08:22:09;;;;;;;29.10;18.40;;;7.40;99.90;;;;;;5053690;28;20204;-48
2023/10/19 08:24:35;;;;;;;32.47;19.77;;;7.40;1.00;;;;;;5053466;28;20185;-48
2023/10/19 08:27:01;;;;;;;30.83;18.90;;;7.40;1.00;;;;;;5053720;28;20182;-49
2023/10/19 08:29:27;;;;;;;32.17;19.50;;;7.50;99.90;;;;;;5053553;28;20187;-48
2023/10/19 08:31:53;;;;;;;31.67;18.57;;;7.50;1.00;;;;;;5053592;28;20507;-48
2023/10/19 08:34:20;;;;;;;34.93;18.10;;;7.50;1.00;;;;;;5053634;28;20261;-48
2023/10/19 08:36:46;;;;;;;27.93;17.97;;;7.50;1.00;;;;;;5053520;28;20413;-48
2023/10/19 08:39:12;;;;;;;31.10;17.80;;;7.60;99.90;;;;;;5053147;28;20428;-48
2023/10/19 08:41:40;;;;;;;33.93;18.80;;;7.50;99.90;;;;;;5053375;28;20542;-48
2023/10/19 08:44:15;;;;;;;32.40;19.07;;;7.60;1.00;;;;;;5053454;28;20976;-48
2023/10/19 08:46:48;;;;;;;32.67;18.73;;;7.60;1.00;;;;;;5053695;28;20422;-48
2023/10/19 08:49:15;;;;;;;28.07;17.40;;;7.50;1.00;;;;;;5053451;28;20441;-49
2023/10/19 08:51:45;;;;;;;34.40;19.37;;;7.50;93.10;;;;;;5052848;28;20841;-49
2023/10/19 08:54:13;;;;;;;31.83;19.07;;;7.50;99.90;;;;;;5053461;28;20419;-49
2023/10/19 08:56:41;;;;;;;27.23;17.90;;;7.50;99.90;;;;;;5053677;28;20431;-49
2023/10/19 08:59:10;;;;;;;32.23;18.53;;;7.50;99.90;;;;;;5053277;28;20502;-49
2023/10/19 09:01:36;;;;;;;32.37;19.30;;;7.50;1.00;;;;;;5053170;28;20503;-48
2023/10/19 09:04:02;;;;;;;32.80;19.23;;;7.50;1.00;;;;;;5053257;28;20574;-49
2023/10/19 09:06:28;;;;;;;32.73;19.77;;;7.60;10.30;;;;;;5053280;28;20184;-49
2023/10/19 09:08:55;;;;;;;27.47;17.73;;;7.60;1.00;;;;;;5053196;28;20669;-49
2023/10/19 09:11:21;;;;;;;29.37;18.30;;;7.60;1.00;;;;;;5052836;28;20454;-48
2023/10/19 09:13:49;;;;;;;30.13;18.30;;;7.60;99.90;;;;;;5053732;28;20417;-49
2023/10/19 09:16:26;;;;;;;35.50;19.80;;;7.70;1.00;;;;;;5057263;28;20428;-48
2023/10/19 09:18:52;;;;;;;28.37;18.07;;;7.70;1.00;;;;;;5057230;28;20801;-49
2023/10/19 09:21:25;;;;;;;37.87;19.00;;;7.70;99.90;;;;;;5056795;28;20414;-49
2023/10/19 09:23:51;;;;;;;32.00;20.07;;;7.60;1.00;;;;;;5057172;28;20172;-48
2023/10/19 09:26:18;;;;;;;31.70;20.17;;;7.60;1.00;;;;;;5057120;28;20878;-48
2023/10/19 09:28:47;;;;;;;34.23;20.83;;;7.60;99.90;;;;;;5057000;28;20471;-48
2023/10/19 09:31:13;;;;;;;31.10;20.27;;;7.60;1.00;;;;;;5056699;28;20921;-49
2023/10/19 09:33:44;;;;;;;30.67;19.17;;;7.60;1.00;;;;;;5056697;28;20416;-48
2023/10/19 09:36:14;;;;;;;37.00;20.73;;;7.50;1.00;;;;;;5056747;28;20417;-49
2023/10/19 09:38:43;;;;;;;31.73;19.77;;;7.50;99.90;;;;;;5056569;28;20411;-49
2023/10/19 09:41:12;;;;;;;38.50;21.63;;;7.50;1.00;;;;;;5056719;28;20424;-48
2023/10/19 09:43:48;;;;;;;32.20;19.77;;;7.60;1.00;;;;;;5056834;28;20506;-48
2023/10/19 09:46:25;;;;;;;37.07;20.90;;;7.60;28.90;;;;;;5056766;28;20404;-49
2023/10/19 09:48:51;;;;;;;32.20;21.13;;;7.50;99.90;;;;;;5056708;28;20424;-48
2023/10/19 09:51:19;;;;;;;32.47;19.30;;;7.50;1.00;;;;;;5056507;28;20467;-48
2023/10/19 09:53:53;;;;;;;35.10;20.50;;;7.60;77.40;;;;;;5056877;28;20474;-48
2023/10/19 09:56:24;;;;;;;31.77;19.80;;;7.50;1.00;;;;;;5056564;28;20838;-49
2023/10/19 09:58:57;;;;;;;36.53;20.23;;;7.50;1.00;;;;;;5056355;28;20407;-48
2023/10/19 10:01:23;;;;;;;29.20;18.90;;;7.50;1.00;;;;;;5056183;28;20456;-48
2023/10/19 10:03:54;;;;;;;38.40;21.10;;;7.50;99.90;;;;;;5056045;28;20422;-49
2023/10/19 10:06:30;;;;;;;32.87;20.00;;;7.60;1.00;;;;;;5056139;28;20453;-49
2023/10/19 10:08:59;;;;;;;33.10;20.20;;;7.60;1.00;;;;;;5056293;28;20450;-49
2023/10/19 10:11:26;;;;;;;31.90;20.30;;;7.60;99.90;;;;;;5055994;28;20418;-49
2023/10/19 10:13:53;;;;;;;37.70;21.00;;;7.50;5.70;;;;;;5056036;28;20979;-48
2023/10/19 10:16:23;;;;;;;35.53;21.20;;;7.50;1.00;;;;;;5056119;28;20417;-48
2023/10/19 10:18:50;;;;;;;36.30;21.73;;;7.50;1.00;;;;;;5056165;28;20484;-48
2023/10/19 10:21:20;;;;;;;34.30;21.27;;;7.50;99.90;;;;;;5055955;28;20465;-48
2023/10/19 10:23:53;;;;;;;31.27;20.57;;;7.60;99.90;;;;;;5055963;28;20474;-48
2023/10/19 10:26:26;;;;;;;32.43;21.07;;;7.60;99.90;;;;;;5054869;28;20440;-48
2023/10/19 10:29:19;;;;;;;31.97;20.50;;;7.60;99.90;;;;;;5055833;28;20397;-48
2023/10/19 10:31:49;;;;;;;32.63;19.80;;;7.70;99.90;;;;;;5055876;28;20404;-48
2023/10/19 10:34:33;;;;;;;35.83;20.47;;;7.60;1.00;;;;;;5055748;28;20438;-48
2023/10/19 10:37:05;;;;;;;33.60;19.77;;;7.70;99.90;;;;;;5056156;28;20433;-48
2023/10/19 10:39:31;;;;;;;31.80;21.07;;;7.70;1.00;;;;;;5055621;28;20995;-48
2023/10/19 10:42:02;;;;;;;31.93;19.60;;;7.70;45.00;;;;;;5055599;28;20473;-48
2023/10/19 10:44:45;;;;;;;31.20;19.47;;;7.70;99.90;;;;;;5055623;28;20416;-48
2023/10/19 10:47:21;;;;;;;28.47;19.53;;;7.70;1.00;;;;;;5055639;28;20410;-48
2023/10/19 10:49:57;;;;;;;31.77;19.70;;;7.70;99.90;;;;;;5055304;28;20912;-48
2023/10/19 10:52:34;;;;;;;30.03;19.50;;;7.70;99.90;;;;;;5055444;28;20444;-48
2023/10/19 10:55:10;;;;;;;27.80;19.40;;;7.60;99.90;;;;;;5055523;28;20408;-48
2023/10/19 10:57:37;;;;;;;32.00;19.63;;;7.60;1.00;;;;;;5055129;28;20414;-48
2023/10/19 11:00:15;;;;;;;32.37;20.53;;;7.50;1.00;;;;;;5054973;28;20912;-48
2023/10/19 11:02:45;;;;;;;31.00;19.77;;;7.50;99.90;;;;;;5055440;28;20475;-48
2023/10/19 11:05:15;;;;;;;30.47;20.50;;;7.60;99.90;;;;;;5055289;28;20404;-48
2023/10/19 11:08:01;;;;;;;34.97;20.47;;;7.70;1.00;;;;;;5054871;28;20498;-48
2023/10/19 11:10:28;;;;;;;32.03;19.67;;;8.90;99.90;;;;;;5055147;28;20400;-47
2023/10/19 11:13:07;;;;;;;31.07;19.47;;;7.70;4.90;;;;;;5055091;28;20417;-48
2023/10/19 11:15:34;;;;;;;32.50;19.50;;;7.60;1.00;;;;;;5055095;28;20424;-48
2023/10/19 11:18:00;;;;;;;30.30;18.80;;;7.60;5.20;;;;;;5054727;28;20940;-47
2023/10/19 11:20:29;;;;;;;30.83;20.70;;;7.50;1.00;;;;;;5054920;28;20428;-47
2023/10/19 11:22:56;;;;;;;29.77;21.00;;;7.50;99.90;;;;;;5054819;28;20463;-47
2023/10/19 11:25:30;;;;;;;33.80;21.60;;;7.50;1.00;;;;;;5054845;28;20419;-47
2023/10/19 11:27:57;;;;;;;38.40;21.17;;;7.50;99.90;;;;;;5054871;28;20403;-48
2023/10/19 11:30:31;;;;;;;36.60;21.20;;;7.40;99.90;;;;;;5054717;28;20771;-48
2023/10/19 11:32:57;;;;;;;31.67;19.93;;;7.50;10.70;;;;;;5054555;28;20399;-48
2023/10/19 11:35:27;;;;;;;36.17;21.67;;;7.50;99.90;;;;;;5054649;28;20626;-49
2023/10/19 11:37:55;;;;;;;34.50;21.70;;;7.50;99.90;;;;;;5054581;28;20421;-48
2023/10/19 11:40:22;;;;;;;38.73;21.73;;;7.50;1.00;;;;;;5054272;28;20787;-48
2023/10/19 11:42:48;;;;;;;35.27;21.70;;;7.50;1.00;;;;;;5054426;28;20457;-48
2023/10/19 11:45:14;;;;;;;34.10;21.67;;;7.50;18.90;;;;;;5054400;28;20421;-49
2023/10/19 11:47:39;;;;;;;34.00;21.10;;;7.50;23.10;;;;;;5054444;28;20764;-48
2023/10/19 11:50:06;;;;;;;35.87;21.33;;;7.50;99.90;;;;;;5053825;28;20278;-48
2023/10/19 11:52:31;;;;;;;34.77;20.87;;;7.50;99.90;;;;;;5054090;28;20694;-48
2023/10/19 11:54:57;;;;;;;39.43;22.10;;;7.50;1.00;;;;;;5053919;28;20416;-48
2023/10/19 11:57:26;;;;;;;40.00;20.87;;;7.50;1.00;;;;;;5054239;28;20186;-48
2023/10/19 11:59:54;;;;;;;33.70;21.13;;;7.60;1.00;;;;;;5054210;28;20562;-48
2023/10/19 12:02:20;;;;;;;36.30;22.17;;;7.60;1.00;;;;;;5054069;28;20872;-47
2023/10/19 12:04:46;;;;;;;33.43;21.37;;;7.60;1.00;;;;;;5053653;28;20475;-48
2023/10/19 12:07:11;;;;;;;34.33;21.30;;;7.60;1.00;;;;;;5054438;28;20407;-48
2023/10/19 12:09:41;;;;;;;36.83;20.90;;;7.60;1.00;;;;;;5054523;28;20236;-47
2023/10/19 12:12:07;;;;;;;35.93;21.97;;;7.60;99.90;;;;;;5054460;28;20200;-48
2023/10/19 12:14:34;;;;;;;35.10;21.10;;;7.60;99.90;;;;;;5053909;28;20419;-48
2023/10/19 12:17:03;;;;;;;33.30;20.83;;;7.60;99.90;;;;;;5069391;28;20836;-49
2023/10/19 12:19:32;;;;;;;31.90;20.73;;;7.60;99.90;;;;;;5035733;28;20433;-49
2023/10/19 12:21:59;;;;;;;36.27;21.70;;;7.60;99.90;;;;;;5054084;28;20798;-49
2023/10/19 12:24:28;;;;;;;36.00;21.70;;;7.70;1.00;;;;;;5054220;28;20497;-49
2023/10/19 12:26:53;;;;;;;31.67;20.17;;;7.70;1.00;;;;;;5053770;28;20768;-48
2023/10/19 12:29:21;;;;;;;33.00;19.73;;;7.70;1.00;;;;;;5054068;28;20421;-50
2023/10/19 12:31:47;;;;;;;33.47;20.30;;;7.70;99.90;;;;;;5054059;28;20195;-48
2023/10/19 12:34:13;;;;;;;29.00;18.33;;;7.70;1.00;;;;;;5054000;28;20421;-48
2023/10/19 12:36:40;;;;;;;41.20;19.87;;;7.70;1.00;;;;;;5053535;28;20434;-49
2023/10/19 12:39:06;;;;;;;29.10;19.20;;;7.80;78.90;;;;;;5053890;28;20586;-49
2023/10/19 12:41:32;;;;;;;31.70;20.07;;;7.80;1.00;;;;;;5053620;28;20478;-48
2023/10/19 12:43:58;;;;;;;34.53;20.07;;;7.80;99.90;;;;;;5053747;28;20221;-48
2023/10/19 12:46:29;;;;;;;30.80;19.43;;;7.70;1.00;;;;;;5054240;28;20411;-48
2023/10/19 12:48:56;;;;;;;38.17;21.10;;;7.70;99.90;;;;;;5053666;28;20420;-48
2023/10/19 12:51:25;;;;;;;31.53;19.43;;;7.80;1.00;;;;;;5053645;28;20512;-48
2023/10/19 12:53:51;;;;;;;30.00;19.13;;;7.80;25.30;;;;;;5053963;28;20461;-48
2023/10/19 12:56:20;;;;;;;32.03;20.93;;;7.90;99.90;;;;;;5054068;28;20771;-48
2023/10/19 12:58:48;;;;;;;31.23;20.37;;;7.90;99.90;;;;;;5053659;28;20420;-48
2023/10/19 13:01:17;;;;;;;32.20;19.73;;;8.00;99.90;;;;;;5053268;28;20798;-48
2023/10/19 13:03:45;;;;;;;33.33;21.00;;;8.00;99.90;;;;;;5053523;28;20781;-49
2023/10/19 13:06:12;;;;;;;32.03;19.57;;;8.00;1.00;;;;;;5053052;28;20900;-56